Wetterdaten: Woche 02.11.15 - 08.11.15 (KW45)
Datum Zeit Temp. A. Feuchte A. Luftdruck Regen Wind Richtung Taupunkt Windchill Windben
02.11.2015 00:00 0,7 C 80 % 1035,1 hPa 0,0 l/m 0,0 km/h N -2,3 C 0,7 C 0,0 km/h
02.11.2015 01:00 0,0 C 82 % 1034,7 hPa 0,0 l/m 0,0 km/h N -2,7 C 0,0 C 0,0 km/h
02.11.2015 02:00 -0,5 C 83 % 1034,1 hPa 0,0 l/m 0,0 km/h N -3,0 C -0,5 C 0,0 km/h
02.11.2015 03:00 -0,0 C 84 % 1033,8 hPa 0,0 l/m 0,0 km/h N -2,4 C -0,0 C 0,0 km/h
02.11.2015 04:00 -0,2 C 84 % 1033,6 hPa 0,0 l/m 0,0 km/h N -2,6 C -0,2 C 0,0 km/h
02.11.2015 05:00 -1,2 C 84 % 1033,4 hPa 0,0 l/m 0,0 km/h N -3,5 C -1,2 C 0,0 km/h
02.11.2015 06:00 -1,8 C 84 % 1033,3 hPa 0,0 l/m 0,0 km/h N -4,1 C -1,8 C 0,0 km/h
02.11.2015 07:00 -1,2 C 84 % 1033,7 hPa 0,0 l/m 0,0 km/h N -3,5 C -1,2 C 0,0 km/h
02.11.2015 08:00 0,6 C 83 % 1033,9 hPa 0,0 l/m 0,0 km/h N -1,9 C 0,6 C 0,0 km/h
02.11.2015 09:00 3,1 C 83 % 1033,6 hPa 0,0 l/m 0,3 km/h N 0,6 C 3,1 C 3,6 km/h
02.11.2015 10:00 6,4 C 73 % 1033,5 hPa 0,0 l/m 0,8 km/h N 1,9 C 6,4 C 5,6 km/h
02.11.2015 11:00 7,5 C 66 % 1033,1 hPa 0,0 l/m 0,6 km/h N 1,5 C 7,5 C 4,4 km/h
02.11.2015 12:00 10,9 C 58 % 1032,4 hPa 0,0 l/m 1,6 km/h N 2,9 C 10,9 C 10,5 km/h
02.11.2015 13:00 12,3 C 53 % 1031,4 hPa 0,0 l/m 2,1 km/h N 3,1 C 12,3 C 14,5 km/h
02.11.2015 14:00 12,9 C 52 % 1030,6 hPa 0,0 l/m 0,9 km/h N 3,3 C 12,9 C 9,3 km/h
02.11.2015 15:00 11,8 C 56 % 1030,3 hPa 0,0 l/m 0,6 km/h N 3,2 C 11,8 C 6,0 km/h
02.11.2015 16:00 10,1 C 60 % 1030,3 hPa 0,0 l/m 0,2 km/h N 2,7 C 10,1 C 3,2 km/h
02.11.2015 17:00 8,3 C 65 % 1030,2 hPa 0,0 l/m 0,0 km/h N 2,1 C 8,3 C 1,2 km/h
02.11.2015 18:00 5,5 C 70 % 1029,9 hPa 0,0 l/m 0,0 km/h N 0,5 C 5,5 C 0,0 km/h
02.11.2015 19:00 3,0 C 78 % 1030,0 hPa 0,0 l/m 0,0 km/h N -0,4 C 3,0 C 0,0 km/h
02.11.2015 20:00 1,7 C 82 % 1029,9 hPa 0,0 l/m 0,0 km/h N -1,1 C 1,7 C 0,0 km/h
02.11.2015 21:00 0,7 C 83 % 1029,9 hPa 0,0 l/m 0,0 km/h N -1,9 C 0,7 C 0,0 km/h
02.11.2015 22:00 0,0 C 83 % 1029,7 hPa 0,0 l/m 0,0 km/h N -2,5 C 0,0 C 0,0 km/h
02.11.2015 23:00 -0,7 C 84 % 1029,3 hPa 0,0 l/m 0,0 km/h N -3,0 C -0,7 C 0,0 km/h
03.11.2015 00:00 -1,2 C 84 % 1029,0 hPa 0,0 l/m 0,0 km/h N -3,6 C -1,2 C 0,0 km/h
03.11.2015 01:00 -1,6 C 84 % 1028,5 hPa 0,0 l/m 0,0 km/h N -3,9 C -1,6 C 0,0 km/h
03.11.2015 02:00 -1,9 C 84 % 1028,1 hPa 0,0 l/m 0,0 km/h N -4,3 C -1,9 C 0,0 km/h
03.11.2015 03:00 -2,3 C 84 % 1027,6 hPa 0,0 l/m 0,0 km/h N -4,7 C -2,3 C 0,0 km/h
03.11.2015 04:00 -2,7 C 84 % 1027,4 hPa 0,0 l/m 0,0 km/h N -5,0 C -2,7 C 0,0 km/h
03.11.2015 05:00 -2,8 C 84 % 1027,4 hPa 0,0 l/m 0,0 km/h N -5,1 C -2,8 C 0,0 km/h
03.11.2015 06:00 -2,3 C 84 % 1027,3 hPa 0,0 l/m 0,0 km/h N -4,6 C -2,3 C 0,0 km/h
03.11.2015 07:00 -2,2 C 84 % 1027,4 hPa 0,0 l/m 0,0 km/h N -4,5 C -2,2 C 0,0 km/h
03.11.2015 08:00 1,7 C 83 % 1027,6 hPa 0,0 l/m 0,8 km/h N -0,9 C 1,7 C 5,2 km/h
03.11.2015 09:00 2,4 C 83 % 1027,4 hPa 0,0 l/m 0,7 km/h N -0,1 C 2,4 C 4,4 km/h
03.11.2015 10:00 3,0 C 83 % 1027,1 hPa 0,0 l/m 0,7 km/h N 0,4 C 3,0 C 4,8 km/h
03.11.2015 11:00 3,6 C 83 % 1026,6 hPa 0,0 l/m 0,2 km/h N 1,0 C 3,6 C 2,8 km/h
03.11.2015 12:00 4,7 C 84 % 1025,7 hPa 0,0 l/m 1,4 km/h N 2,2 C 4,7 C 5,6 km/h
03.11.2015 13:00 6,7 C 81 % 1024,9 hPa 0,0 l/m 0,5 km/h N 3,6 C 6,7 C 3,6 km/h
03.11.2015 14:00 8,7 C 75 % 1024,2 hPa 0,0 l/m 0,3 km/h N 4,4 C 8,7 C 3,6 km/h
03.11.2015 15:00 9,5 C 71 % 1023,5 hPa 0,0 l/m 0,0 km/h N 4,5 C 9,5 C 0,0 km/h
03.11.2015 16:00 8,0 C 73 % 1023,2 hPa 0,0 l/m 0,0 km/h N 3,4 C 8,0 C 0,0 km/h
03.11.2015 17:00 5,3 C 77 % 1023,0 hPa 0,0 l/m 0,0 km/h N 1,6 C 5,3 C 0,0 km/h
03.11.2015 18:00 3,2 C 82 % 1022,5 hPa 0,0 l/m 0,0 km/h N 0,4 C 3,2 C 0,0 km/h
03.11.2015 19:00 2,7 C 83 % 1022,3 hPa 0,0 l/m 0,0 km/h N 0,1 C 2,7 C 0,0 km/h
03.11.2015 20:00 1,8 C 84 % 1022,2 hPa 0,0 l/m 0,0 km/h N -0,6 C 1,8 C 0,0 km/h
03.11.2015 21:00 1,3 C 84 % 1022,3 hPa 0,0 l/m 0,0 km/h N -1,1 C 1,3 C 0,0 km/h
03.11.2015 22:00 1,3 C 84 % 1022,4 hPa 0,0 l/m 0,0 km/h N -1,1 C 1,3 C 0,4 km/h
03.11.2015 23:00 1,1 C 84 % 1022,2 hPa 0,0 l/m 0,0 km/h N -1,4 C 1,1 C 0,0 km/h
04.11.2015 00:00 0,3 C 84 % 1022,1 hPa 0,0 l/m 0,0 km/h N -2,1 C 0,3 C 0,0 km/h
04.11.2015 01:00 0,8 C 83 % 1022,4 hPa 0,0 l/m 0,1 km/h N -1,7 C 0,8 C 1,2 km/h
04.11.2015 02:00 0,1 C 84 % 1022,5 hPa 0,0 l/m 0,0 km/h N -2,4 C 0,1 C 0,0 km/h
04.11.2015 03:00 -0,3 C 83 % 1022,6 hPa 0,0 l/m 0,0 km/h N -2,9 C -0,3 C 0,0 km/h
04.11.2015 04:00 -0,7 C 83 % 1023,1 hPa 0,0 l/m 0,0 km/h N -3,2 C -0,7 C 0,0 km/h
04.11.2015 05:00 -0,4 C 83 % 1023,5 hPa 0,0 l/m 0,5 km/h N -3,0 C -0,4 C 2,0 km/h
04.11.2015 06:00 -0,3 C 83 % 1023,6 hPa 0,0 l/m 0,0 km/h N -2,9 C -0,3 C 0,0 km/h
04.11.2015 07:00 -0,4 C 83 % 1023,8 hPa 0,0 l/m 0,0 km/h N -2,9 C -0,4 C 0,0 km/h
04.11.2015 08:00 1,6 C 82 % 1024,2 hPa 0,0 l/m 1,7 km/h N -1,1 C 1,6 C 6,4 km/h
04.11.2015 09:00 3,6 C 82 % 1024,0 hPa 0,3 l/m 4,1 km/h N 0,8 C 3,6 C 11,7 km/h
04.11.2015 10:00 5,8 C 83 % 1024,0 hPa 0,0 l/m 0,8 km/h N 3,2 C 5,8 C 6,0 km/h
04.11.2015 11:00 7,3 C 79 % 1023,7 hPa 0,0 l/m 1,0 km/h N 3,9 C 7,3 C 7,2 km/h
04.11.2015 12:00 8,3 C 76 % 1023,1 hPa 0,0 l/m 0,5 km/h N 4,4 C 8,3 C 5,6 km/h
04.11.2015 13:00 8,5 C 75 % 1022,6 hPa 0,0 l/m 0,4 km/h N 4,4 C 8,5 C 4,8 km/h
04.11.2015 14:00 8,8 C 75 % 1022,3 hPa 0,0 l/m 0,3 km/h N 4,6 C 8,8 C 4,4 km/h
04.11.2015 15:00 8,6 C 74 % 1022,2 hPa 0,0 l/m 0,1 km/h N 4,3 C 8,6 C 1,6 km/h
04.11.2015 16:00 7,1 C 77 % 1022,3 hPa 0,0 l/m 0,0 km/h N 3,3 C 7,1 C 0,8 km/h
04.11.2015 17:00 5,1 C 79 % 1022,2 hPa 0,0 l/m 0,0 km/h N 1,6 C 5,1 C 0,0 km/h
04.11.2015 18:00 3,3 C 81 % 1022,1 hPa 0,0 l/m 0,0 km/h N 0,3 C 3,3 C 0,0 km/h
04.11.2015 19:00 2,3 C 83 % 1022,5 hPa 0,0 l/m 0,0 km/h N -0,3 C 2,3 C 0,0 km/h
04.11.2015 20:00 1,8 C 84 % 1022,5 hPa 0,0 l/m 0,0 km/h N -0,6 C 1,8 C 0,0 km/h
04.11.2015 21:00 1,4 C 84 % 1022,5 hPa 0,0 l/m 0,0 km/h N -1,0 C 1,4 C 0,0 km/h
04.11.2015 22:00 1,0 C 84 % 1022,3 hPa 0,0 l/m 0,0 km/h N -1,4 C 1,0 C 0,0 km/h
04.11.2015 23:00 0,5 C 84 % 1022,3 hPa 0,0 l/m 0,0 km/h N -1,9 C 0,5 C 0,0 km/h
05.11.2015 00:00 0,1 C 84 % 1022,2 hPa 0,0 l/m 0,0 km/h N -2,3 C 0,1 C 0,0 km/h
05.11.2015 01:00 -0,5 C 84 % 1022,2 hPa 0,0 l/m 0,0 km/h N -2,8 C -0,5 C 0,0 km/h
05.11.2015 02:00 -0,9 C 84 % 1022,4 hPa 0,0 l/m 0,0 km/h N -3,2 C -0,9 C 0,0 km/h
05.11.2015 03:00 -0,8 C 84 % 1022,2 hPa 0,0 l/m 0,0 km/h N -3,2 C -0,8 C 0,0 km/h
05.11.2015 04:00 -0,7 C 84 % 1022,1 hPa 0,0 l/m 0,0 km/h N -3,0 C -0,7 C 0,0 km/h
05.11.2015 05:00 -0,8 C 84 % 1022,3 hPa 0,0 l/m 0,0 km/h N -3,2 C -0,8 C 0,0 km/h
05.11.2015 06:00 -1,0 C 84 % 1022,4 hPa 0,0 l/m 0,0 km/h N -3,4 C -1,0 C 0,0 km/h
05.11.2015 07:00 -1,0 C 84 % 1023,1 hPa 0,0 l/m 0,0 km/h N -3,4 C -1,0 C 0,0 km/h
05.11.2015 08:00 0,2 C 83 % 1023,5 hPa 0,0 l/m 0,0 km/h N -2,4 C 0,2 C 1,2 km/h
05.11.2015 09:00 1,8 C 82 % 1023,4 hPa 0,0 l/m 0,0 km/h N -0,9 C 1,8 C 0,4 km/h
05.11.2015 10:00 4,5 C 82 % 1023,4 hPa 0,0 l/m 0,1 km/h N 1,7 C 4,5 C 2,4 km/h
05.11.2015 11:00 6,2 C 82 % 1023,0 hPa 0,0 l/m 0,1 km/h N 3,4 C 6,2 C 2,8 km/h
05.11.2015 12:00 8,8 C 83 % 1022,1 hPa 0,0 l/m 0,3 km/h N 6,0 C 8,8 C 3,6 km/h
05.11.2015 13:00 12,1 C 78 % 1021,4 hPa 0,0 l/m 0,2 km/h N 8,5 C 12,1 C 3,2 km/h
05.11.2015 14:00 14,5 C 69 % 1021,3 hPa 0,0 l/m 0,2 km/h N 8,8 C 14,5 C 3,6 km/h
05.11.2015 15:00 13,0 C 72 % 1021,6 hPa 0,0 l/m 0,2 km/h N 8,1 C 13,0 C 2,4 km/h
05.11.2015 16:00 10,7 C 75 % 1021,9 hPa 0,0 l/m 0,0 km/h N 6,4 C 10,7 C 0,0 km/h
05.11.2015 17:00 7,7 C 78 % 1022,6 hPa 0,0 l/m 0,0 km/h N 4,1 C 7,7 C 0,0 km/h
05.11.2015 18:00 5,4 C 81 % 1022,9 hPa 0,0 l/m 0,0 km/h N 2,3 C 5,4 C 0,0 km/h
05.11.2015 19:00 4,1 C 82 % 1023,2 hPa 0,0 l/m 0,0 km/h N 1,3 C 4,1 C 0,0 km/h
05.11.2015 20:00 3,2 C 84 % 1023,1 hPa 0,0 l/m 0,0 km/h N 0,6 C 3,2 C 0,0 km/h
05.11.2015 21:00 2,6 C 84 % 1023,0 hPa 0,0 l/m 0,0 km/h N 0,1 C 2,6 C 0,0 km/h
05.11.2015 22:00 2,1 C 84 % 1022,9 hPa 0,0 l/m 0,0 km/h N -0,3 C 2,1 C 0,0 km/h
05.11.2015 23:00 2,0 C 84 % 1022,9 hPa 0,0 l/m 0,1 km/h N -0,4 C 2,0 C 1,2 km/h
06.11.2015 00:00 1,6 C 84 % 1023,1 hPa 0,0 l/m 0,0 km/h N -0,8 C 1,6 C 0,0 km/h
06.11.2015 01:00 1,1 C 84 % 1023,3 hPa 0,0 l/m 0,0 km/h N -1,4 C 1,1 C 0,0 km/h
06.11.2015 02:00 0,7 C 83 % 1023,5 hPa 0,0 l/m 0,0 km/h N -1,8 C 0,7 C 0,0 km/h
06.11.2015 03:00 0,3 C 83 % 1023,7 hPa 0,0 l/m 0,0 km/h N -2,2 C 0,3 C 0,0 km/h
06.11.2015 04:00 -0,0 C 83 % 1024,2 hPa 0,0 l/m 0,0 km/h N -2,6 C -0,0 C 0,0 km/h
06.11.2015 05:00 -0,2 C 83 % 1024,6 hPa 0,0 l/m 0,0 km/h N -2,8 C -0,2 C 0,0 km/h
06.11.2015 06:00 -0,4 C 83 % 1024,9 hPa 0,0 l/m 0,0 km/h N -2,9 C -0,4 C 0,0 km/h
06.11.2015 07:00 -0,4 C 83 % 1025,4 hPa 0,0 l/m 0,0 km/h N -2,9 C -0,4 C 0,0 km/h
06.11.2015 08:00 0,9 C 82 % 1026,1 hPa 0,0 l/m 0,0 km/h N -1,8 C 0,9 C 0,0 km/h
06.11.2015 09:00 3,4 C 82 % 1025,9 hPa 0,0 l/m 0,0 km/h N 0,6 C 3,4 C 0,0 km/h
06.11.2015 10:00 5,1 C 81 % 1026,0 hPa 0,0 l/m 0,4 km/h N 2,1 C 5,1 C 2,4 km/h
06.11.2015 11:00 6,6 C 81 % 1025,8 hPa 0,0 l/m 0,4 km/h N 3,6 C 6,6 C 3,2 km/h
06.11.2015 12:00 9,3 C 80 % 1025,1 hPa 0,0 l/m 0,1 km/h N 6,0 C 9,3 C 2,4 km/h
06.11.2015 13:00 11,5 C 82 % 1024,6 hPa 0,0 l/m 0,2 km/h N 8,6 C 11,5 C 3,2 km/h
06.11.2015 14:00 12,8 C 76 % 1024,8 hPa 0,0 l/m 0,3 km/h N 8,6 C 12,8 C 3,2 km/h
06.11.2015 15:00 13,0 C 75 % 1025,0 hPa 0,0 l/m 0,0 km/h N 8,7 C 13,0 C 0,0 km/h
06.11.2015 16:00 11,5 C 76 % 1025,0 hPa 0,0 l/m 0,0 km/h N 7,5 C 11,5 C 0,0 km/h
06.11.2015 17:00 8,6 C 80 % 1025,3 hPa 0,0 l/m 0,1 km/h N 5,3 C 8,6 C 0,8 km/h
06.11.2015 18:00 6,6 C 82 % 1025,7 hPa 0,0 l/m 0,0 km/h N 3,7 C 6,6 C 0,0 km/h
06.11.2015 19:00 5,4 C 83 % 1026,2 hPa 0,0 l/m 0,0 km/h N 2,8 C 5,4 C 0,0 km/h
06.11.2015 20:00 4,4 C 84 % 1026,5 hPa 0,0 l/m 0,0 km/h N 1,9 C 4,4 C 0,0 km/h
06.11.2015 21:00 3,8 C 84 % 1026,4 hPa 0,0 l/m 0,0 km/h N 1,4 C 3,8 C 0,0 km/h
06.11.2015 22:00 3,5 C 84 % 1026,1 hPa 0,0 l/m 0,0 km/h N 1,0 C 3,5 C 0,0 km/h
06.11.2015 23:00 3,3 C 84 % 1026,0 hPa 0,0 l/m 0,0 km/h N 0,8 C 3,3 C 0,8 km/h
07.11.2015 00:00 4,5 C 82 % 1025,7 hPa 0,0 l/m 0,0 km/h N 1,8 C 4,5 C 0,0 km/h
07.11.2015 01:00 5,4 C 82 % 1025,5 hPa 0,0 l/m 0,1 km/h N 2,6 C 5,4 C 0,8 km/h
07.11.2015 02:00 5,7 C 82 % 1025,3 hPa 0,0 l/m 0,0 km/h N 2,8 C 5,7 C 0,8 km/h
07.11.2015 03:00 5,5 C 82 % 1025,4 hPa 0,0 l/m 0,0 km/h N 2,7 C 5,5 C 0,0 km/h
07.11.2015 04:00 5,7 C 82 % 1025,4 hPa 0,0 l/m 0,0 km/h N 2,8 C 5,7 C 0,0 km/h
07.11.2015 05:00 6,0 C 81 % 1025,3 hPa 0,0 l/m 0,0 km/h N 3,0 C 6,0 C 0,0 km/h
07.11.2015 06:00 5,9 C 81 % 1025,3 hPa 0,0 l/m 0,0 km/h N 2,9 C 5,9 C 0,0 km/h
07.11.2015 07:00 5,9 C 81 % 1025,8 hPa 0,0 l/m 0,0 km/h N 2,9 C 5,9 C 0,0 km/h
07.11.2015 08:00 6,8 C 81 % 1026,1 hPa 0,0 l/m 0,2 km/h N 3,7 C 6,8 C 1,6 km/h
07.11.2015 09:00 8,7 C 80 % 1026,1 hPa 0,0 l/m 0,4 km/h N 5,5 C 8,7 C 5,2 km/h
07.11.2015 10:00 13,8 C 80 % 1025,7 hPa 0,0 l/m 3,6 km/h N 10,4 C 13,8 C 19,7 km/h
07.11.2015 11:00 15,8 C 80 % 1025,4 hPa 0,3 l/m 11,4 km/h N 12,3 C 13,5 C 31,8 km/h
07.11.2015 12:00 15,8 C 80 % 1025,1 hPa 0,0 l/m 14,5 km/h N 12,4 C 12,3 C 36,6 km/h
07.11.2015 13:00 16,3 C 77 % 1025,0 hPa 0,0 l/m 11,1 km/h N 12,3 C 14,1 C 27,4 km/h
07.11.2015 14:00 16,5 C 77 % 1025,1 hPa 0,0 l/m 10,7 km/h N 12,3 C 14,5 C 27,0 km/h
07.11.2015 15:00 16,6 C 76 % 1025,3 hPa 0,0 l/m 8,3 km/h N 12,4 C 15,6 C 27,0 km/h
07.11.2015 16:00 16,4 C 77 % 1025,8 hPa 0,0 l/m 5,1 km/h N 12,3 C 16,3 C 17,7 km/h
07.11.2015 17:00 15,9 C 78 % 1026,3 hPa 0,0 l/m 1,8 km/h N 12,0 C 15,9 C 10,5 km/h
07.11.2015 18:00 15,7 C 80 % 1026,3 hPa 0,0 l/m 3,2 km/h N 12,2 C 15,7 C 14,1 km/h
07.11.2015 19:00 15,6 C 80 % 1026,5 hPa 0,0 l/m 2,2 km/h N 12,2 C 15,6 C 11,3 km/h
07.11.2015 20:00 15,1 C 81 % 1026,7 hPa 0,0 l/m 1,2 km/h N 11,9 C 15,1 C 7,2 km/h
07.11.2015 21:00 13,7 C 81 % 1026,6 hPa 0,0 l/m 0,0 km/h N 10,5 C 13,7 C 0,0 km/h
07.11.2015 22:00 12,4 C 83 % 1026,5 hPa 0,0 l/m 0,0 km/h N 9,5 C 12,4 C 0,8 km/h
07.11.2015 23:00 11,9 C 83 % 1026,0 hPa 0,0 l/m 0,2 km/h N 9,1 C 11,9 C 2,4 km/h
08.11.2015 00:00 11,1 C 83 % 1026,3 hPa 0,0 l/m 0,2 km/h N 8,2 C 11,1 C 3,2 km/h
08.11.2015 01:00 10,7 C 82 % 1026,2 hPa 0,0 l/m 0,1 km/h N 7,7 C 10,7 C 1,2 km/h
08.11.2015 02:00 10,4 C 82 % 1026,3 hPa 0,0 l/m 0,0 km/h N 7,4 C 10,4 C 0,0 km/h
08.11.2015 03:00 9,8 C 82 % 1026,5 hPa 0,0 l/m 0,1 km/h N 6,9 C 9,8 C 2,4 km/h
08.11.2015 04:00 9,5 C 82 % 1026,8 hPa 0,0 l/m 0,2 km/h N 6,6 C 9,5 C 3,6 km/h
08.11.2015 05:00 9,8 C 81 % 1026,7 hPa 0,0 l/m 0,2 km/h N 6,7 C 9,8 C 3,2 km/h
08.11.2015 06:00 9,3 C 81 % 1026,3 hPa 0,0 l/m 2,5 km/h N 6,2 C 9,3 C 3,2 km/h
08.11.2015 07:00 9,3 C 81 % 1026,6 hPa 0,0 l/m 3,2 km/h N 6,2 C 9,3 C 3,2 km/h
08.11.2015 08:00 16,3 C 70 % 1027,2 hPa 0,0 l/m 8,7 km/h N 10,8 C 15,1 C 22,5 km/h
08.11.2015 09:00 19,5 C 68 % 1027,7 hPa 0,0 l/m 6,1 km/h N 13,3 C 19,2 C 22,1 km/h
08.11.2015 10:00 20,2 C 65 % 1028,0 hPa 0,0 l/m 8,7 km/h N 13,3 C 19,3 C 23,3 km/h
08.11.2015 11:00 20,6 C 64 % 1028,0 hPa 0,0 l/m 8,1 km/h N 13,5 C 20,0 C 22,5 km/h
08.11.2015 12:00 20,3 C 64 % 1027,7 hPa 0,0 l/m 10,8 km/h N 13,3 C 18,8 C 25,3 km/h
08.11.2015 13:00 20,4 C 64 % 1027,2 hPa 0,0 l/m 9,8 km/h N 13,5 C 19,2 C 24,5 km/h
08.11.2015 14:00 19,6 C 68 % 1027,0 hPa 0,0 l/m 9,5 km/h N 13,6 C 18,5 C 23,3 km/h
08.11.2015 15:00 19,1 C 70 % 1027,1 hPa 0,0 l/m 4,3 km/h N 13,5 C 19,1 C 14,9 km/h
08.11.2015 16:00 17,8 C 71 % 1027,4 hPa 0,0 l/m 0,0 km/h N 12,4 C 17,8 C 1,2 km/h
08.11.2015 17:00 14,6 C 77 % 1027,7 hPa 0,0 l/m 0,1 km/h N 10,5 C 14,6 C 1,2 km/h
08.11.2015 18:00 12,1 C 81 % 1027,6 hPa 0,0 l/m 0,0 km/h N 8,9 C 12,1 C 0,0 km/h
08.11.2015 19:00 10,6 C 82 % 1027,4 hPa 0,0 l/m 0,0 km/h N 7,7 C 10,6 C 0,0 km/h
08.11.2015 20:00 9,9 C 83 % 1027,1 hPa 0,0 l/m 0,1 km/h N 7,1 C 9,9 C 0,8 km/h
08.11.2015 21:00 9,1 C 83 % 1026,7 hPa 0,0 l/m 0,0 km/h N 6,4 C 9,1 C 0,0 km/h
08.11.2015 22:00 8,6 C 83 % 1026,0 hPa 0,0 l/m 0,0 km/h N 5,9 C 8,6 C 0,0 km/h
08.11.2015 23:00 8,1 C 83 % 1025,4 hPa 0,0 l/m 0,0 km/h N 5,4 C 8,1 C 0,0 km/h
Min-Datum _ 03.11.15 02.11.15 05.11.15 - 02.11.15 - 03.11.15 03.11.15 02.11.15
_ Min-Zeit 05:15 14:00 14:00 - 00:00 - 05:00 05:00 00:00
Minimum _ -2,9 C 51 % 1021,2 hPa - 0,0 km/h - -5,2 C -2,9 C 0,0 km/h
Max-Datum _ 08.11.15 02.11.15 02.11.15 04.11.15 07.11.15 - 08.11.15 08.11.15 07.11.15
_ Max-Zeit 11:45 03:00 00:00 09:15 12:00 - 14:30 11:00 12:00
Maximum _ 20,7 C 84 % 1035,2 hPa 0,3 l/m 15,7 km/h
N
- 13,8 C 20,6 C 41,8 km/h
N
Durchschnitt _ 6,0 C 80 % 1025,8 hPa #0,5 l/m 1,0 km/h N 2,7 C 5,9 C 3,7 km/h